sensor_id;sensor_type;location;lat;lon;timestamp;P1;durP1;ratioP1;P2;durP2;ratioP2
13083;SDS011;6608;48.790;9.198;2023-07-29T00:02:03;141.70;;;63.83;;
13083;SDS011;6608;48.790;9.198;2023-07-29T00:04:30;141.20;;;63.43;;
13083;SDS011;6608;48.790;9.198;2023-07-29T00:06:56;143.20;;;63.60;;
13083;SDS011;6608;48.790;9.198;2023-07-29T00:09:23;141.43;;;64.07;;
13083;SDS011;6608;48.790;9.198;2023-07-29T00:11:49;142.17;;;63.53;;
13083;SDS011;6608;48.790;9.198;2023-07-29T00:14:16;141.60;;;63.63;;
13083;SDS011;6608;48.790;9.198;2023-07-29T00:16:43;144.77;;;64.87;;
13083;SDS011;6608;48.790;9.198;2023-07-29T00:19:10;140.50;;;63.17;;
13083;SDS011;6608;48.790;9.198;2023-07-29T00:21:36;141.23;;;63.40;;
13083;SDS011;6608;48.790;9.198;2023-07-29T00:24:10;139.73;;;63.00;;
13083;SDS011;6608;48.790;9.198;2023-07-29T00:26:36;143.33;;;64.00;;
13083;SDS011;6608;48.790;9.198;2023-07-29T00:29:03;139.97;;;62.90;;
13083;SDS011;6608;48.790;9.198;2023-07-29T00:31:29;141.23;;;62.80;;
13083;SDS011;6608;48.790;9.198;2023-07-29T00:33:57;139.47;;;62.80;;
13083;SDS011;6608;48.790;9.198;2023-07-29T00:36:24;141.40;;;64.33;;
13083;SDS011;6608;48.790;9.198;2023-07-29T00:38:50;143.57;;;62.97;;
13083;SDS011;6608;48.790;9.198;2023-07-29T00:41:18;141.00;;;64.17;;
13083;SDS011;6608;48.790;9.198;2023-07-29T00:43:44;140.97;;;63.43;;
13083;SDS011;6608;48.790;9.198;2023-07-29T00:46:11;141.97;;;64.33;;
13083;SDS011;6608;48.790;9.198;2023-07-29T00:48:38;141.33;;;63.83;;
13083;SDS011;6608;48.790;9.198;2023-07-29T00:51:06;141.30;;;63.50;;
13083;SDS011;6608;48.790;9.198;2023-07-29T00:53:32;140.43;;;63.70;;
13083;SDS011;6608;48.790;9.198;2023-07-29T00:55:59;139.70;;;62.77;;
13083;SDS011;6608;48.790;9.198;2023-07-29T00:58:26;144.20;;;64.00;;
13083;SDS011;6608;48.790;9.198;2023-07-29T01:00:52;141.90;;;63.60;;
13083;SDS011;6608;48.790;9.198;2023-07-29T01:03:19;141.90;;;63.83;;
13083;SDS011;6608;48.790;9.198;2023-07-29T01:05:48;140.10;;;62.77;;
13083;SDS011;6608;48.790;9.198;2023-07-29T01:08:19;141.10;;;62.97;;
13083;SDS011;6608;48.790;9.198;2023-07-29T01:10:51;140.80;;;62.77;;
13083;SDS011;6608;48.790;9.198;2023-07-29T01:13:22;143.73;;;63.50;;
13083;SDS011;6608;48.790;9.198;2023-07-29T01:15:51;143.07;;;62.97;;
13083;SDS011;6608;48.790;9.198;2023-07-29T01:18:21;142.57;;;63.67;;
13083;SDS011;6608;48.790;9.198;2023-07-29T01:20:48;143.00;;;63.13;;
13083;SDS011;6608;48.790;9.198;2023-07-29T01:23:23;144.47;;;63.27;;
13083;SDS011;6608;48.790;9.198;2023-07-29T01:25:49;143.53;;;64.57;;
13083;SDS011;6608;48.790;9.198;2023-07-29T01:28:16;140.47;;;62.90;;
13083;SDS011;6608;48.790;9.198;2023-07-29T01:30:42;139.73;;;62.67;;
13083;SDS011;6608;48.790;9.198;2023-07-29T01:33:10;140.43;;;62.97;;
13083;SDS011;6608;48.790;9.198;2023-07-29T01:35:40;141.27;;;63.27;;
13083;SDS011;6608;48.790;9.198;2023-07-29T01:38:09;141.87;;;63.67;;
13083;SDS011;6608;48.790;9.198;2023-07-29T01:40:40;140.03;;;63.17;;
13083;SDS011;6608;48.790;9.198;2023-07-29T01:43:07;140.57;;;63.40;;
13083;SDS011;6608;48.790;9.198;2023-07-29T01:45:34;140.17;;;63.13;;
13083;SDS011;6608;48.790;9.198;2023-07-29T01:48:03;142.90;;;63.23;;
13083;SDS011;6608;48.790;9.198;2023-07-29T01:50:29;141.20;;;63.90;;
13083;SDS011;6608;48.790;9.198;2023-07-29T01:52:57;140.40;;;63.13;;
13083;SDS011;6608;48.790;9.198;2023-07-29T01:55:23;142.27;;;62.90;;
13083;SDS011;6608;48.790;9.198;2023-07-29T01:57:51;139.67;;;62.83;;
13083;SDS011;6608;48.790;9.198;2023-07-29T02:00:17;143.30;;;63.53;;
13083;SDS011;6608;48.790;9.198;2023-07-29T02:02:44;140.03;;;62.90;;
13083;SDS011;6608;48.790;9.198;2023-07-29T02:05:10;141.07;;;63.23;;
13083;SDS011;6608;48.790;9.198;2023-07-29T02:07:37;141.07;;;62.90;;
13083;SDS011;6608;48.790;9.198;2023-07-29T02:10:03;144.47;;;63.60;;
13083;SDS011;6608;48.790;9.198;2023-07-29T02:12:30;143.90;;;63.30;;
13083;SDS011;6608;48.790;9.198;2023-07-29T02:14:58;143.60;;;64.27;;
13083;SDS011;6608;48.790;9.198;2023-07-29T02:17:24;139.37;;;62.63;;
13083;SDS011;6608;48.790;9.198;2023-07-29T02:19:51;140.87;;;63.47;;
13083;SDS011;6608;48.790;9.198;2023-07-29T02:22:17;141.20;;;63.00;;
13083;SDS011;6608;48.790;9.198;2023-07-29T02:24:44;140.67;;;62.93;;
13083;SDS011;6608;48.790;9.198;2023-07-29T02:27:11;144.33;;;64.27;;
13083;SDS011;6608;48.790;9.198;2023-07-29T02:29:37;142.50;;;62.87;;
13083;SDS011;6608;48.790;9.198;2023-07-29T02:32:05;141.13;;;63.57;;
13083;SDS011;6608;48.790;9.198;2023-07-29T02:34:31;141.20;;;63.40;;
13083;SDS011;6608;48.790;9.198;2023-07-29T02:36:58;140.67;;;63.53;;
13083;SDS011;6608;48.790;9.198;2023-07-29T02:39:24;140.53;;;63.03;;
13083;SDS011;6608;48.790;9.198;2023-07-29T02:41:51;140.23;;;63.07;;
13083;SDS011;6608;48.790;9.198;2023-07-29T02:44:17;142.07;;;63.23;;
13083;SDS011;6608;48.790;9.198;2023-07-29T02:46:44;142.97;;;63.23;;
13083;SDS011;6608;48.790;9.198;2023-07-29T02:49:12;140.23;;;63.07;;
13083;SDS011;6608;48.790;9.198;2023-07-29T02:51:38;140.13;;;63.00;;
13083;SDS011;6608;48.790;9.198;2023-07-29T02:54:05;141.50;;;62.53;;
13083;SDS011;6608;48.790;9.198;2023-07-29T02:56:31;144.23;;;64.30;;
13083;SDS011;6608;48.790;9.198;2023-07-29T02:58:58;140.77;;;63.10;;
13083;SDS011;6608;48.790;9.198;2023-07-29T03:01:25;141.63;;;63.00;;
13083;SDS011;6608;48.790;9.198;2023-07-29T03:03:51;142.10;;;63.47;;
13083;SDS011;6608;48.790;9.198;2023-07-29T03:06:19;140.93;;;63.10;;
13083;SDS011;6608;48.790;9.198;2023-07-29T03:08:45;144.53;;;63.17;;
13083;SDS011;6608;48.790;9.198;2023-07-29T03:11:12;141.57;;;62.67;;
13083;SDS011;6608;48.790;9.198;2023-07-29T03:13:39;140.47;;;63.03;;
13083;SDS011;6608;48.790;9.198;2023-07-29T03:16:06;142.63;;;63.63;;
13083;SDS011;6608;48.790;9.198;2023-07-29T03:18:32;141.27;;;62.67;;
13083;SDS011;6608;48.790;9.198;2023-07-29T03:20:59;142.67;;;63.53;;
13083;SDS011;6608;48.790;9.198;2023-07-29T03:23:27;140.87;;;63.40;;
13083;SDS011;6608;48.790;9.198;2023-07-29T03:25:54;139.47;;;62.37;;
13083;SDS011;6608;48.790;9.198;2023-07-29T03:28:21;142.27;;;63.27;;
13083;SDS011;6608;48.790;9.198;2023-07-29T03:30:48;141.27;;;63.97;;
13083;SDS011;6608;48.790;9.198;2023-07-29T03:33:14;140.67;;;62.77;;
13083;SDS011;6608;48.790;9.198;2023-07-29T03:35:41;140.67;;;62.57;;
13083;SDS011;6608;48.790;9.198;2023-07-29T03:38:09;142.30;;;63.07;;
13083;SDS011;6608;48.790;9.198;2023-07-29T03:40:37;144.17;;;62.93;;
13083;SDS011;6608;48.790;9.198;2023-07-29T03:43:03;141.53;;;63.00;;
13083;SDS011;6608;48.790;9.198;2023-07-29T03:45:30;145.27;;;64.00;;
13083;SDS011;6608;48.790;9.198;2023-07-29T03:47:56;143.33;;;63.80;;
13083;SDS011;6608;48.790;9.198;2023-07-29T03:50:23;142.47;;;63.40;;
13083;SDS011;6608;48.790;9.198;2023-07-29T03:52:49;141.20;;;63.27;;
13083;SDS011;6608;48.790;9.198;2023-07-29T03:55:16;142.23;;;63.50;;
13083;SDS011;6608;48.790;9.198;2023-07-29T03:57:44;147.03;;;65.20;;
13083;SDS011;6608;48.790;9.198;2023-07-29T04:00:10;143.37;;;62.87;;
13083;SDS011;6608;48.790;9.198;2023-07-29T04:02:37;140.63;;;63.80;;
13083;SDS011;6608;48.790;9.198;2023-07-29T04:05:04;141.97;;;63.70;;
13083;SDS011;6608;48.790;9.198;2023-07-29T04:07:31;141.80;;;63.67;;
13083;SDS011;6608;48.790;9.198;2023-07-29T04:09:57;141.33;;;63.20;;
13083;SDS011;6608;48.790;9.198;2023-07-29T04:12:24;142.63;;;63.73;;
13083;SDS011;6608;48.790;9.198;2023-07-29T04:14:52;141.27;;;63.63;;
13083;SDS011;6608;48.790;9.198;2023-07-29T04:17:18;141.97;;;62.83;;
13083;SDS011;6608;48.790;9.198;2023-07-29T04:19:45;140.53;;;63.03;;
13083;SDS011;6608;48.790;9.198;2023-07-29T04:22:11;140.80;;;63.13;;
13083;SDS011;6608;48.790;9.198;2023-07-29T04:24:37;142.77;;;64.10;;
13083;SDS011;6608;48.790;9.198;2023-07-29T04:27:04;142.17;;;63.10;;
13083;SDS011;6608;48.790;9.198;2023-07-29T04:29:31;141.53;;;63.33;;
13083;SDS011;6608;48.790;9.198;2023-07-29T04:31:58;142.77;;;63.47;;
13083;SDS011;6608;48.790;9.198;2023-07-29T04:34:26;142.13;;;63.30;;
13083;SDS011;6608;48.790;9.198;2023-07-29T04:36:52;141.90;;;62.97;;
13083;SDS011;6608;48.790;9.198;2023-07-29T04:39:19;142.30;;;63.63;;
13083;SDS011;6608;48.790;9.198;2023-07-29T04:41:45;141.40;;;63.10;;
13083;SDS011;6608;48.790;9.198;2023-07-29T04:44:11;141.37;;;63.20;;
13083;SDS011;6608;48.790;9.198;2023-07-29T04:46:38;146.43;;;63.30;;
13083;SDS011;6608;48.790;9.198;2023-07-29T04:49:06;141.30;;;63.50;;
13083;SDS011;6608;48.790;9.198;2023-07-29T04:51:32;144.97;;;64.33;;
13083;SDS011;6608;48.790;9.198;2023-07-29T04:53:59;141.77;;;63.00;;
13083;SDS011;6608;48.790;9.198;2023-07-29T04:56:25;145.13;;;63.97;;
13083;SDS011;6608;48.790;9.198;2023-07-29T04:58:51;144.37;;;62.83;;
13083;SDS011;6608;48.790;9.198;2023-07-29T05:01:18;150.30;;;63.90;;
13083;SDS011;6608;48.790;9.198;2023-07-29T05:03:45;145.13;;;63.27;;
13083;SDS011;6608;48.790;9.198;2023-07-29T05:06:13;143.77;;;63.33;;
13083;SDS011;6608;48.790;9.198;2023-07-29T05:08:39;145.20;;;63.30;;
13083;SDS011;6608;48.790;9.198;2023-07-29T05:11:06;148.57;;;63.77;;
13083;SDS011;6608;48.790;9.198;2023-07-29T05:13:32;145.90;;;64.17;;
13083;SDS011;6608;48.790;9.198;2023-07-29T05:15:59;143.30;;;63.33;;
13083;SDS011;6608;48.790;9.198;2023-07-29T05:18:25;143.23;;;63.80;;
13083;SDS011;6608;48.790;9.198;2023-07-29T05:20:52;142.57;;;63.33;;
13083;SDS011;6608;48.790;9.198;2023-07-29T05:23:19;145.90;;;63.30;;
13083;SDS011;6608;48.790;9.198;2023-07-29T05:25:46;143.43;;;63.57;;
13083;SDS011;6608;48.790;9.198;2023-07-29T05:28:12;144.00;;;64.03;;
13083;SDS011;6608;48.790;9.198;2023-07-29T05:30:38;144.10;;;64.03;;
13083;SDS011;6608;48.790;9.198;2023-07-29T05:33:08;144.13;;;64.07;;
13083;SDS011;6608;48.790;9.198;2023-07-29T05:35:34;144.40;;;63.57;;
13083;SDS011;6608;48.790;9.198;2023-07-29T05:38:00;144.23;;;63.33;;
13083;SDS011;6608;48.790;9.198;2023-07-29T05:40:30;142.00;;;63.20;;
13083;SDS011;6608;48.790;9.198;2023-07-29T05:42:56;144.70;;;63.63;;
13083;SDS011;6608;48.790;9.198;2023-07-29T05:45:22;145.03;;;63.20;;
13083;SDS011;6608;48.790;9.198;2023-07-29T05:47:49;142.77;;;63.40;;
13083;SDS011;6608;48.790;9.198;2023-07-29T05:50:15;143.70;;;63.73;;
13083;SDS011;6608;48.790;9.198;2023-07-29T05:52:42;142.67;;;63.57;;
13083;SDS011;6608;48.790;9.198;2023-07-29T05:55:08;148.57;;;63.90;;
13083;SDS011;6608;48.790;9.198;2023-07-29T05:57:36;145.53;;;63.53;;
13083;SDS011;6608;48.790;9.198;2023-07-29T06:00:03;143.80;;;64.37;;
13083;SDS011;6608;48.790;9.198;2023-07-29T06:02:29;145.33;;;64.07;;
13083;SDS011;6608;48.790;9.198;2023-07-29T06:04:56;144.83;;;63.47;;
13083;SDS011;6608;48.790;9.198;2023-07-29T06:07:22;145.70;;;64.50;;
13083;SDS011;6608;48.790;9.198;2023-07-29T06:09:48;145.00;;;63.80;;
13083;SDS011;6608;48.790;9.198;2023-07-29T06:12:15;143.70;;;64.00;;
13083;SDS011;6608;48.790;9.198;2023-07-29T06:14:43;146.30;;;64.60;;
13083;SDS011;6608;48.790;9.198;2023-07-29T06:17:09;144.77;;;64.13;;
13083;SDS011;6608;48.790;9.198;2023-07-29T06:19:36;148.00;;;64.67;;
13083;SDS011;6608;48.790;9.198;2023-07-29T06:22:03;145.57;;;64.37;;
13083;SDS011;6608;48.790;9.198;2023-07-29T06:24:30;144.60;;;64.40;;
13083;SDS011;6608;48.790;9.198;2023-07-29T06:26:57;146.20;;;64.43;;
13083;SDS011;6608;48.790;9.198;2023-07-29T06:29:23;144.63;;;63.67;;
13083;SDS011;6608;48.790;9.198;2023-07-29T06:31:51;146.47;;;64.17;;
13083;SDS011;6608;48.790;9.198;2023-07-29T06:34:17;148.00;;;64.97;;
13083;SDS011;6608;48.790;9.198;2023-07-29T06:36:44;145.73;;;64.70;;
13083;SDS011;6608;48.790;9.198;2023-07-29T06:39:10;145.47;;;64.27;;
13083;SDS011;6608;48.790;9.198;2023-07-29T06:41:36;148.60;;;64.70;;
13083;SDS011;6608;48.790;9.198;2023-07-29T06:44:03;148.43;;;64.60;;
13083;SDS011;6608;48.790;9.198;2023-07-29T06:46:29;146.27;;;64.13;;
13083;SDS011;6608;48.790;9.198;2023-07-29T06:49:07;149.77;;;64.70;;
13083;SDS011;6608;48.790;9.198;2023-07-29T06:51:33;148.57;;;64.93;;
13083;SDS011;6608;48.790;9.198;2023-07-29T06:54:00;146.67;;;64.30;;
13083;SDS011;6608;48.790;9.198;2023-07-29T06:56:27;147.00;;;64.57;;
13083;SDS011;6608;48.790;9.198;2023-07-29T06:58:53;147.73;;;64.90;;
13083;SDS011;6608;48.790;9.198;2023-07-29T07:01:20;146.40;;;65.17;;
13083;SDS011;6608;48.790;9.198;2023-07-29T07:03:56;147.33;;;65.07;;
13083;SDS011;6608;48.790;9.198;2023-07-29T07:06:25;148.50;;;64.57;;
13083;SDS011;6608;48.790;9.198;2023-07-29T07:08:51;146.53;;;65.07;;
13083;SDS011;6608;48.790;9.198;2023-07-29T07:11:17;146.17;;;64.40;;
13083;SDS011;6608;48.790;9.198;2023-07-29T07:13:44;149.23;;;65.83;;
13083;SDS011;6608;48.790;9.198;2023-07-29T07:16:10;146.17;;;65.07;;
13083;SDS011;6608;48.790;9.198;2023-07-29T07:18:37;154.23;;;64.83;;
13083;SDS011;6608;48.790;9.198;2023-07-29T07:21:03;147.37;;;64.10;;
13083;SDS011;6608;48.790;9.198;2023-07-29T07:23:31;145.07;;;64.10;;
13083;SDS011;6608;48.790;9.198;2023-07-29T07:25:57;145.53;;;64.47;;
13083;SDS011;6608;48.790;9.198;2023-07-29T07:28:24;144.27;;;63.43;;
13083;SDS011;6608;48.790;9.198;2023-07-29T07:30:51;144.57;;;64.27;;
13083;SDS011;6608;48.790;9.198;2023-07-29T07:33:17;146.53;;;64.53;;
13083;SDS011;6608;48.790;9.198;2023-07-29T07:35:43;144.83;;;63.70;;
13083;SDS011;6608;48.790;9.198;2023-07-29T07:38:10;144.47;;;63.23;;
13083;SDS011;6608;48.790;9.198;2023-07-29T07:40:38;144.13;;;63.67;;
13083;SDS011;6608;48.790;9.198;2023-07-29T07:43:04;144.63;;;64.07;;
13083;SDS011;6608;48.790;9.198;2023-07-29T07:45:31;143.30;;;63.07;;
13083;SDS011;6608;48.790;9.198;2023-07-29T07:47:58;144.83;;;63.57;;
13083;SDS011;6608;48.790;9.198;2023-07-29T07:50:24;144.13;;;63.43;;
13083;SDS011;6608;48.790;9.198;2023-07-29T07:52:51;146.60;;;64.17;;
13083;SDS011;6608;48.790;9.198;2023-07-29T07:55:17;147.60;;;63.97;;
13083;SDS011;6608;48.790;9.198;2023-07-29T07:57:45;144.30;;;63.50;;
13083;SDS011;6608;48.790;9.198;2023-07-29T08:00:12;146.13;;;63.87;;
13083;SDS011;6608;48.790;9.198;2023-07-29T08:02:40;146.67;;;63.70;;
13083;SDS011;6608;48.790;9.198;2023-07-29T08:05:07;146.20;;;64.13;;
13083;SDS011;6608;48.790;9.198;2023-07-29T08:07:33;146.53;;;64.27;;
13083;SDS011;6608;48.790;9.198;2023-07-29T08:10:00;145.97;;;64.47;;
13083;SDS011;6608;48.790;9.198;2023-07-29T08:12:26;146.00;;;64.03;;
13083;SDS011;6608;48.790;9.198;2023-07-29T08:14:54;145.73;;;64.37;;
13083;SDS011;6608;48.790;9.198;2023-07-29T08:17:20;146.20;;;64.10;;
13083;SDS011;6608;48.790;9.198;2023-07-29T08:19:47;145.77;;;64.00;;
13083;SDS011;6608;48.790;9.198;2023-07-29T08:22:13;147.57;;;64.87;;
13083;SDS011;6608;48.790;9.198;2023-07-29T08:24:42;147.50;;;64.47;;
13083;SDS011;6608;48.790;9.198;2023-07-29T08:27:08;147.83;;;64.23;;
13083;SDS011;6608;48.790;9.198;2023-07-29T08:29:35;146.80;;;64.93;;
13083;SDS011;6608;48.790;9.198;2023-07-29T08:32:03;146.07;;;64.67;;
13083;SDS011;6608;48.790;9.198;2023-07-29T08:34:29;149.40;;;64.63;;
13083;SDS011;6608;48.790;9.198;2023-07-29T08:36:55;146.60;;;64.83;;
13083;SDS011;6608;48.790;9.198;2023-07-29T08:39:23;150.07;;;65.37;;
13083;SDS011;6608;48.790;9.198;2023-07-29T08:41:49;147.13;;;64.67;;
13083;SDS011;6608;48.790;9.198;2023-07-29T08:44:20;147.80;;;64.10;;
13083;SDS011;6608;48.790;9.198;2023-07-29T08:46:47;147.77;;;63.97;;
13083;SDS011;6608;48.790;9.198;2023-07-29T08:49:15;146.47;;;64.37;;
13083;SDS011;6608;48.790;9.198;2023-07-29T08:51:44;146.40;;;64.37;;
13083;SDS011;6608;48.790;9.198;2023-07-29T08:54:10;147.23;;;65.63;;
13083;SDS011;6608;48.790;9.198;2023-07-29T08:56:37;147.03;;;65.87;;
13083;SDS011;6608;48.790;9.198;2023-07-29T08:59:04;148.40;;;66.37;;
13083;SDS011;6608;48.790;9.198;2023-07-29T09:01:30;149.23;;;65.37;;
13083;SDS011;6608;48.790;9.198;2023-07-29T09:03:57;146.93;;;65.57;;
13083;SDS011;6608;48.790;9.198;2023-07-29T09:06:25;149.33;;;67.03;;
13083;SDS011;6608;48.790;9.198;2023-07-29T09:08:52;149.87;;;66.03;;
13083;SDS011;6608;48.790;9.198;2023-07-29T09:11:19;147.77;;;66.03;;
13083;SDS011;6608;48.790;9.198;2023-07-29T09:13:46;147.70;;;66.57;;
13083;SDS011;6608;48.790;9.198;2023-07-29T09:16:13;147.43;;;66.03;;
13083;SDS011;6608;48.790;9.198;2023-07-29T09:18:39;148.03;;;67.07;;
13083;SDS011;6608;48.790;9.198;2023-07-29T09:21:06;146.07;;;65.70;;
13083;SDS011;6608;48.790;9.198;2023-07-29T09:23:39;147.33;;;66.60;;
13083;SDS011;6608;48.790;9.198;2023-07-29T09:26:06;150.23;;;66.23;;
13083;SDS011;6608;48.790;9.198;2023-07-29T09:28:33;148.27;;;66.57;;
13083;SDS011;6608;48.790;9.198;2023-07-29T09:31:00;148.03;;;66.90;;
13083;SDS011;6608;48.790;9.198;2023-07-29T09:33:27;150.77;;;67.83;;
13083;SDS011;6608;48.790;9.198;2023-07-29T09:35:53;148.20;;;67.57;;
13083;SDS011;6608;48.790;9.198;2023-07-29T09:38:25;149.20;;;68.50;;
13083;SDS011;6608;48.790;9.198;2023-07-29T09:40:54;148.40;;;67.60;;
13083;SDS011;6608;48.790;9.198;2023-07-29T09:43:24;150.73;;;68.73;;
13083;SDS011;6608;48.790;9.198;2023-07-29T09:45:51;150.90;;;68.93;;
13083;SDS011;6608;48.790;9.198;2023-07-29T09:48:19;151.80;;;69.00;;
13083;SDS011;6608;48.790;9.198;2023-07-29T09:50:46;149.60;;;68.50;;
13083;SDS011;6608;48.790;9.198;2023-07-29T09:53:13;148.53;;;67.83;;
13083;SDS011;6608;48.790;9.198;2023-07-29T09:55:40;148.63;;;68.30;;
13083;SDS011;6608;48.790;9.198;2023-07-29T09:58:13;148.93;;;67.77;;
13083;SDS011;6608;48.790;9.198;2023-07-29T10:00:39;153.13;;;68.23;;
13083;SDS011;6608;48.790;9.198;2023-07-29T10:03:06;147.67;;;67.80;;
13083;SDS011;6608;48.790;9.198;2023-07-29T10:05:33;147.97;;;67.77;;
13083;SDS011;6608;48.790;9.198;2023-07-29T10:08:00;148.90;;;68.37;;
13083;SDS011;6608;48.790;9.198;2023-07-29T10:10:27;149.13;;;68.87;;
13083;SDS011;6608;48.790;9.198;2023-07-29T10:12:54;149.00;;;68.70;;
13083;SDS011;6608;48.790;9.198;2023-07-29T10:15:22;154.30;;;70.43;;
13083;SDS011;6608;48.790;9.198;2023-07-29T10:17:49;149.53;;;68.87;;
13083;SDS011;6608;48.790;9.198;2023-07-29T10:20:16;152.03;;;69.50;;
13083;SDS011;6608;48.790;9.198;2023-07-29T10:22:43;149.77;;;68.87;;
13083;SDS011;6608;48.790;9.198;2023-07-29T10:25:17;150.57;;;69.13;;
13083;SDS011;6608;48.790;9.198;2023-07-29T10:27:47;150.03;;;68.90;;
13083;SDS011;6608;48.790;9.198;2023-07-29T10:30:13;150.57;;;68.37;;
13083;SDS011;6608;48.790;9.198;2023-07-29T10:32:43;151.13;;;68.67;;
13083;SDS011;6608;48.790;9.198;2023-07-29T10:35:10;151.97;;;68.17;;
13083;SDS011;6608;48.790;9.198;2023-07-29T10:37:37;150.47;;;67.53;;
13083;SDS011;6608;48.790;9.198;2023-07-29T10:40:06;152.33;;;67.87;;
13083;SDS011;6608;48.790;9.198;2023-07-29T10:42:32;150.23;;;67.77;;
13083;SDS011;6608;48.790;9.198;2023-07-29T10:45:00;151.30;;;68.53;;
13083;SDS011;6608;48.790;9.198;2023-07-29T10:47:27;151.40;;;67.43;;
13083;SDS011;6608;48.790;9.198;2023-07-29T10:49:56;153.10;;;69.03;;
13083;SDS011;6608;48.790;9.198;2023-07-29T10:52:30;151.10;;;67.47;;
13083;SDS011;6608;48.790;9.198;2023-07-29T10:54:56;151.90;;;67.93;;
13083;SDS011;6608;48.790;9.198;2023-07-29T10:57:30;152.13;;;67.33;;
13083;SDS011;6608;48.790;9.198;2023-07-29T10:59:57;151.40;;;67.70;;
13083;SDS011;6608;48.790;9.198;2023-07-29T11:02:28;151.73;;;67.60;;
13083;SDS011;6608;48.790;9.198;2023-07-29T11:04:56;151.60;;;69.00;;
13083;SDS011;6608;48.790;9.198;2023-07-29T11:07:23;152.93;;;68.47;;
13083;SDS011;6608;48.790;9.198;2023-07-29T11:09:51;152.63;;;70.17;;
13083;SDS011;6608;48.790;9.198;2023-07-29T11:12:34;152.13;;;69.23;;
13083;SDS011;6608;48.790;9.198;2023-07-29T11:15:01;152.77;;;71.60;;
13083;SDS011;6608;48.790;9.198;2023-07-29T11:17:28;151.43;;;70.30;;
13083;SDS011;6608;48.790;9.198;2023-07-29T11:19:57;153.18;;;70.55;;
13083;SDS011;6608;48.790;9.198;2023-07-29T11:22:25;151.45;;;70.22;;
13083;SDS011;6608;48.790;9.198;2023-07-29T11:24:52;150.32;;;69.85;;
13083;SDS011;6608;48.790;9.198;2023-07-29T11:27:18;152.70;;;70.57;;
13083;SDS011;6608;48.790;9.198;2023-07-29T11:29:45;152.17;;;69.83;;
13083;SDS011;6608;48.790;9.198;2023-07-29T11:32:12;154.53;;;70.53;;
13083;SDS011;6608;48.790;9.198;2023-07-29T11:34:38;151.83;;;69.57;;
13083;SDS011;6608;48.790;9.198;2023-07-29T11:37:08;152.20;;;69.00;;
13083;SDS011;6608;48.790;9.198;2023-07-29T11:39:39;153.17;;;69.37;;
13083;SDS011;6608;48.790;9.198;2023-07-29T11:42:05;155.30;;;69.43;;
13083;SDS011;6608;48.790;9.198;2023-07-29T11:44:32;152.83;;;69.37;;
13083;SDS011;6608;48.790;9.198;2023-07-29T11:46:58;154.07;;;69.17;;
13083;SDS011;6608;48.790;9.198;2023-07-29T11:49:25;155.13;;;69.03;;
13083;SDS011;6608;48.790;9.198;2023-07-29T11:51:51;154.87;;;68.93;;
13083;SDS011;6608;48.790;9.198;2023-07-29T11:54:20;155.13;;;69.33;;
13083;SDS011;6608;48.790;9.198;2023-07-29T11:56:47;156.30;;;69.60;;
13083;SDS011;6608;48.790;9.198;2023-07-29T11:59:14;158.50;;;69.83;;
13083;SDS011;6608;48.790;9.198;2023-07-29T12:01:40;156.03;;;69.60;;
13083;SDS011;6608;48.790;9.198;2023-07-29T12:04:07;154.60;;;70.17;;
13083;SDS011;6608;48.790;9.198;2023-07-29T12:06:33;156.90;;;70.50;;
13083;SDS011;6608;48.790;9.198;2023-07-29T12:09:00;156.87;;;70.57;;
13083;SDS011;6608;48.790;9.198;2023-07-29T12:11:28;158.70;;;70.70;;
13083;SDS011;6608;48.790;9.198;2023-07-29T12:13:54;161.53;;;71.63;;
13083;SDS011;6608;48.790;9.198;2023-07-29T12:16:21;161.20;;;71.00;;
13083;SDS011;6608;48.790;9.198;2023-07-29T12:18:47;162.07;;;71.03;;
13083;SDS011;6608;48.790;9.198;2023-07-29T12:21:16;167.77;;;70.63;;
13083;SDS011;6608;48.790;9.198;2023-07-29T12:23:43;163.40;;;70.93;;
13083;SDS011;6608;48.790;9.198;2023-07-29T12:26:09;163.40;;;70.67;;
13083;SDS011;6608;48.790;9.198;2023-07-29T12:28:37;164.17;;;71.53;;
13083;SDS011;6608;48.790;9.198;2023-07-29T12:31:06;165.97;;;71.80;;
13083;SDS011;6608;48.790;9.198;2023-07-29T12:33:33;169.87;;;72.73;;
13083;SDS011;6608;48.790;9.198;2023-07-29T12:36:00;165.37;;;71.73;;
13083;SDS011;6608;48.790;9.198;2023-07-29T12:38:26;170.83;;;72.60;;
13083;SDS011;6608;48.790;9.198;2023-07-29T12:40:53;169.93;;;72.63;;
13083;SDS011;6608;48.790;9.198;2023-07-29T12:43:19;172.77;;;73.50;;
13083;SDS011;6608;48.790;9.198;2023-07-29T12:45:47;175.90;;;73.10;;
13083;SDS011;6608;48.790;9.198;2023-07-29T12:48:15;178.73;;;73.57;;
13083;SDS011;6608;48.790;9.198;2023-07-29T12:50:41;175.53;;;73.23;;
13083;SDS011;6608;48.790;9.198;2023-07-29T12:53:08;156.45;;;71.50;;
13083;SDS011;6608;48.790;9.198;2023-07-29T12:55:36;156.80;;;71.13;;
13083;SDS011;6608;48.790;9.198;2023-07-29T12:58:02;154.25;;;71.40;;
13083;SDS011;6608;48.790;9.198;2023-07-29T13:00:29;153.53;;;70.60;;
13083;SDS011;6608;48.790;9.198;2023-07-29T13:02:57;153.37;;;70.27;;
13083;SDS011;6608;48.790;9.198;2023-07-29T13:05:23;152.27;;;69.80;;
13083;SDS011;6608;48.790;9.198;2023-07-29T13:07:49;153.50;;;70.47;;
13083;SDS011;6608;48.790;9.198;2023-07-29T13:10:16;152.63;;;70.43;;
13083;SDS011;6608;48.790;9.198;2023-07-29T13:12:42;153.77;;;70.47;;
13083;SDS011;6608;48.790;9.198;2023-07-29T13:15:09;153.03;;;70.60;;
13083;SDS011;6608;48.790;9.198;2023-07-29T13:17:35;153.07;;;70.27;;
13083;SDS011;6608;48.790;9.198;2023-07-29T13:20:04;154.23;;;70.27;;
13083;SDS011;6608;48.790;9.198;2023-07-29T13:22:31;153.33;;;70.10;;
13083;SDS011;6608;48.790;9.198;2023-07-29T13:24:58;155.33;;;70.97;;
13083;SDS011;6608;48.790;9.198;2023-07-29T13:27:24;154.47;;;70.23;;
13083;SDS011;6608;48.790;9.198;2023-07-29T13:29:51;154.53;;;70.03;;
13083;SDS011;6608;48.790;9.198;2023-07-29T13:32:18;156.67;;;70.60;;
13083;SDS011;6608;48.790;9.198;2023-07-29T13:34:44;155.47;;;71.53;;
13083;SDS011;6608;48.790;9.198;2023-07-29T13:37:12;155.63;;;70.13;;
13083;SDS011;6608;48.790;9.198;2023-07-29T13:39:39;155.77;;;69.77;;
13083;SDS011;6608;48.790;9.198;2023-07-29T13:42:05;154.30;;;69.10;;
13083;SDS011;6608;48.790;9.198;2023-07-29T13:44:32;154.97;;;69.40;;
13083;SDS011;6608;48.790;9.198;2023-07-29T13:46:58;154.97;;;69.40;;
13083;SDS011;6608;48.790;9.198;2023-07-29T13:49:25;158.83;;;69.57;;
13083;SDS011;6608;48.790;9.198;2023-07-29T13:51:51;158.13;;;70.40;;
13083;SDS011;6608;48.790;9.198;2023-07-29T13:54:19;161.50;;;72.50;;
13083;SDS011;6608;48.790;9.198;2023-07-29T13:56:46;161.70;;;70.40;;
13083;SDS011;6608;48.790;9.198;2023-07-29T13:59:13;163.43;;;70.43;;
13083;SDS011;6608;48.790;9.198;2023-07-29T14:01:39;171.57;;;71.53;;
13083;SDS011;6608;48.790;9.198;2023-07-29T14:04:05;182.97;;;72.80;;
13083;SDS011;6608;48.790;9.198;2023-07-29T14:06:32;166.23;;;71.03;;
13083;SDS011;6608;48.790;9.198;2023-07-29T14:08:58;170.90;;;71.93;;
13083;SDS011;6608;48.790;9.198;2023-07-29T14:11:26;161.83;;;70.23;;
13083;SDS011;6608;48.790;9.198;2023-07-29T14:13:52;173.47;;;71.47;;
13083;SDS011;6608;48.790;9.198;2023-07-29T14:16:19;175.67;;;72.20;;
13083;SDS011;6608;48.790;9.198;2023-07-29T14:18:45;153.33;;;69.97;;
13083;SDS011;6608;48.790;9.198;2023-07-29T14:21:12;153.60;;;68.97;;